QUAO2: Spring River Near Quapaw, OK

                                SHEF ID:       QUAO2     Spring River near Quapaw, OK
STATION TYPE:
Regulating: Stage = 20.00, Flow = 33834

PRECIP STAGE STAGE(2) RIV-FLOW BAT-LOAD
in ft ft cfs volt
Ccp-Rev Ccp-Rev Ccp-Rev Ccp-Rev Ccp-Rev
(America/Chicago)
02/16 00:00 0.00 8.84 8.88 4415 12.37
02/16 01:00 0.00 8.82 8.86 4380 12.38
02/16 02:00 0.00 8.78 8.83 4311 12.30
02/16 03:00 0.00 8.76 8.80 4277 12.34
02/16 04:00 0.00 8.73 8.76 4225 12.30
02/16 05:00 0.00 8.69 8.73 4157 12.27
02/16 06:00 0.00 8.66 8.68 4106 12.29
02/16 07:00 0.00 8.61 8.64 4019 12.26
02/16 08:00 0.00 8.57 8.57 3949 12.30
02/16 09:00 0.00 8.53 8.52 3881 13.03
02/16 10:00 0.00 8.45 8.43 3736 13.47
02/16 11:00 0.00 8.41 8.37 3662 13.28
02/16 12:00 0.00 8.32 8.29 3498 12.96
02/16 13:00 0.00 8.27 8.24 3409 12.87
02/16 14:00 0.00 8.20 8.16 3286 12.83
02/16 15:00 0.00 8.13 8.12 3168 12.80
02/16 16:00 0.00 8.07 8.04 3073 12.73
02/16 17:00 0.00 7.99 7.99 2948 12.73
02/16 18:00 0.00 7.94 7.93 2872 12.56
02/16 19:00 0.00 7.87 7.87 2767 12.44
02/16 20:00 0.00 7.84 7.81 2723 12.43
02/16 21:00 0.00 7.77 7.76 2621 12.40
02/16 22:00 0.00 7.70 7.71 2522 12.36
02/16 23:00 0.00 7.65 7.65 2452 12.37
Data processed at Tue 17Feb2026 05:21 GMT

NOTICE: If you are parsing this page

Please convert to using our Data API. Starting early 2026 we will be migrating to: https://water.usace.army.mil with modern pages rendered in JavaScript. When this migration completes you will no longer be able to scrape this page! CWMSDataAPI (CDA)

Timeseries IDs (TSIDs)

TSIDs used from left to right in the data table
QUAP.Precip-Inc.Total.1Hour.1Hour.Ccp-Rev
QUAP.Stage.Inst.1Hour.0.Ccp-Rev
QUAP.Stage-Alt.Inst.1Hour.0.Ccp-Rev
QUAP.Flow.Inst.1Hour.0.Ccp-Rev
QUAP.Volt-Battery Load.Inst.1Hour.0.Ccp-Rev

                            

All information presented herein is the property of the government of the United States of America and may be revised or deleted at any time without prior notice. Dissemination of this information without the expressed written consent of the Public Affairs Office, Tulsa District U.S. Army Corps of Engineers is strictly prohibited. These data are gathered electronically and, as presented, have NOT undergone any form of quality control. These data are NOT guaranteed to be valid or correct.